sensor_id;sensor_type;location;lat;lon;timestamp;P1;durP1;ratioP1;P2;durP2;ratioP2
34505;SDS011;20748;42.632;23.198;2023-06-26T00:02:08;14.23;;;8.45;;
34505;SDS011;20748;42.632;23.198;2023-06-26T00:04:41;15.35;;;8.50;;
34505;SDS011;20748;42.632;23.198;2023-06-26T00:07:14;17.05;;;8.70;;
34505;SDS011;20748;42.632;23.198;2023-06-26T00:09:47;13.27;;;8.18;;
34505;SDS011;20748;42.632;23.198;2023-06-26T00:12:19;14.88;;;8.60;;
34505;SDS011;20748;42.632;23.198;2023-06-26T00:14:52;16.00;;;8.38;;
34505;SDS011;20748;42.632;23.198;2023-06-26T00:17:25;11.50;;;7.63;;
34505;SDS011;20748;42.632;23.198;2023-06-26T00:19:57;13.20;;;7.63;;
34505;SDS011;20748;42.632;23.198;2023-06-26T00:22:30;13.63;;;8.68;;
34505;SDS011;20748;42.632;23.198;2023-06-26T00:25:02;14.10;;;8.73;;
34505;SDS011;20748;42.632;23.198;2023-06-26T00:27:35;14.68;;;8.68;;
34505;SDS011;20748;42.632;23.198;2023-06-26T00:30:09;12.20;;;7.97;;
34505;SDS011;20748;42.632;23.198;2023-06-26T00:32:43;14.68;;;7.47;;
34505;SDS011;20748;42.632;23.198;2023-06-26T00:35:15;16.23;;;9.25;;
34505;SDS011;20748;42.632;23.198;2023-06-26T00:37:49;16.23;;;8.40;;
34505;SDS011;20748;42.632;23.198;2023-06-26T00:40:21;14.15;;;8.02;;
34505;SDS011;20748;42.632;23.198;2023-06-26T00:42:54;13.43;;;9.20;;
34505;SDS011;20748;42.632;23.198;2023-06-26T00:45:27;16.50;;;9.43;;
34505;SDS011;20748;42.632;23.198;2023-06-26T00:48:14;14.48;;;9.18;;
34505;SDS011;20748;42.632;23.198;2023-06-26T00:50:46;14.45;;;8.90;;
34505;SDS011;20748;42.632;23.198;2023-06-26T00:53:19;14.00;;;7.97;;
34505;SDS011;20748;42.632;23.198;2023-06-26T00:55:52;14.35;;;8.60;;
34505;SDS011;20748;42.632;23.198;2023-06-26T00:58:24;12.98;;;7.80;;
34505;SDS011;20748;42.632;23.198;2023-06-26T01:00:57;14.13;;;7.95;;
34505;SDS011;20748;42.632;23.198;2023-06-26T01:03:30;15.68;;;8.30;;
34505;SDS011;20748;42.632;23.198;2023-06-26T01:06:03;11.77;;;7.35;;
34505;SDS011;20748;42.632;23.198;2023-06-26T01:08:37;14.73;;;9.23;;
34505;SDS011;20748;42.632;23.198;2023-06-26T01:11:10;14.00;;;8.02;;
34505;SDS011;20748;42.632;23.198;2023-06-26T01:13:43;11.18;;;7.15;;
34505;SDS011;20748;42.632;23.198;2023-06-26T01:16:16;11.73;;;7.55;;
34505;SDS011;20748;42.632;23.198;2023-06-26T01:18:51;12.30;;;7.75;;
34505;SDS011;20748;42.632;23.198;2023-06-26T01:21:24;11.63;;;7.93;;
34505;SDS011;20748;42.632;23.198;2023-06-26T01:26:41;13.85;;;7.40;;
34505;SDS011;20748;42.632;23.198;2023-06-26T01:29:19;13.38;;;8.50;;
34505;SDS011;20748;42.632;23.198;2023-06-26T01:31:54;15.68;;;8.18;;
34505;SDS011;20748;42.632;23.198;2023-06-26T01:34:27;12.73;;;7.60;;
34505;SDS011;20748;42.632;23.198;2023-06-26T01:37:01;12.77;;;7.47;;
34505;SDS011;20748;42.632;23.198;2023-06-26T01:39:33;11.55;;;7.28;;
34505;SDS011;20748;42.632;23.198;2023-06-26T01:42:06;15.27;;;8.23;;
34505;SDS011;20748;42.632;23.198;2023-06-26T01:44:41;11.38;;;7.38;;
34505;SDS011;20748;42.632;23.198;2023-06-26T01:47:19;12.45;;;8.40;;
34505;SDS011;20748;42.632;23.198;2023-06-26T01:49:54;16.00;;;8.85;;
34505;SDS011;20748;42.632;23.198;2023-06-26T01:52:34;12.45;;;6.80;;
34505;SDS011;20748;42.632;23.198;2023-06-26T01:55:15;11.60;;;7.07;;
34505;SDS011;20748;42.632;23.198;2023-06-26T01:57:52;12.27;;;7.60;;
34505;SDS011;20748;42.632;23.198;2023-06-26T02:00:28;12.52;;;6.95;;
34505;SDS011;20748;42.632;23.198;2023-06-26T02:03:01;11.07;;;7.45;;
34505;SDS011;20748;42.632;23.198;2023-06-26T02:05:35;14.10;;;8.25;;
34505;SDS011;20748;42.632;23.198;2023-06-26T02:08:08;11.70;;;7.18;;
34505;SDS011;20748;42.632;23.198;2023-06-26T02:10:41;14.98;;;7.57;;
34505;SDS011;20748;42.632;23.198;2023-06-26T02:13:14;13.73;;;8.02;;
34505;SDS011;20748;42.632;23.198;2023-06-26T02:15:47;14.57;;;8.73;;
34505;SDS011;20748;42.632;23.198;2023-06-26T02:18:20;12.85;;;8.25;;
34505;SDS011;20748;42.632;23.198;2023-06-26T02:20:54;13.95;;;8.13;;
34505;SDS011;20748;42.632;23.198;2023-06-26T02:23:26;16.88;;;8.57;;
34505;SDS011;20748;42.632;23.198;2023-06-26T02:25:59;16.58;;;10.15;;
34505;SDS011;20748;42.632;23.198;2023-06-26T02:28:33;13.63;;;8.65;;
34505;SDS011;20748;42.632;23.198;2023-06-26T02:31:06;13.45;;;8.25;;
34505;SDS011;20748;42.632;23.198;2023-06-26T02:33:38;15.05;;;9.25;;
34505;SDS011;20748;42.632;23.198;2023-06-26T02:36:11;15.25;;;8.57;;
34505;SDS011;20748;42.632;23.198;2023-06-26T02:38:45;15.13;;;8.90;;
34505;SDS011;20748;42.632;23.198;2023-06-26T02:41:17;13.60;;;8.55;;
34505;SDS011;20748;42.632;23.198;2023-06-26T02:43:51;18.80;;;12.23;;
34505;SDS011;20748;42.632;23.198;2023-06-26T02:46:24;14.23;;;8.18;;
34505;SDS011;20748;42.632;23.198;2023-06-26T02:48:56;13.77;;;9.20;;
34505;SDS011;20748;42.632;23.198;2023-06-26T02:51:31;12.63;;;8.95;;
34505;SDS011;20748;42.632;23.198;2023-06-26T02:54:05;15.82;;;8.88;;
34505;SDS011;20748;42.632;23.198;2023-06-26T02:56:37;15.98;;;9.65;;
34505;SDS011;20748;42.632;23.198;2023-06-26T02:59:21;18.40;;;9.95;;
34505;SDS011;20748;42.632;23.198;2023-06-26T03:01:56;16.33;;;9.88;;
34505;SDS011;20748;42.632;23.198;2023-06-26T03:04:35;18.10;;;9.57;;
34505;SDS011;20748;42.632;23.198;2023-06-26T03:07:09;14.57;;;8.88;;
34505;SDS011;20748;42.632;23.198;2023-06-26T03:09:43;13.32;;;8.82;;
34505;SDS011;20748;42.632;23.198;2023-06-26T03:12:16;18.23;;;9.07;;
34505;SDS011;20748;42.632;23.198;2023-06-26T03:14:49;13.07;;;9.20;;
34505;SDS011;20748;42.632;23.198;2023-06-26T03:17:21;15.13;;;9.63;;
34505;SDS011;20748;42.632;23.198;2023-06-26T03:19:56;15.30;;;9.25;;
34505;SDS011;20748;42.632;23.198;2023-06-26T03:22:35;15.18;;;9.13;;
34505;SDS011;20748;42.632;23.198;2023-06-26T03:25:08;14.40;;;9.00;;
34505;SDS011;20748;42.632;23.198;2023-06-26T03:27:40;14.65;;;8.68;;
34505;SDS011;20748;42.632;23.198;2023-06-26T03:30:14;13.73;;;8.60;;
34505;SDS011;20748;42.632;23.198;2023-06-26T03:32:49;14.43;;;8.63;;
34505;SDS011;20748;42.632;23.198;2023-06-26T03:35:22;15.68;;;9.82;;
34505;SDS011;20748;42.632;23.198;2023-06-26T03:37:55;14.20;;;9.27;;
34505;SDS011;20748;42.632;23.198;2023-06-26T03:40:27;16.15;;;10.23;;
34505;SDS011;20748;42.632;23.198;2023-06-26T03:42:59;13.48;;;8.77;;
34505;SDS011;20748;42.632;23.198;2023-06-26T03:45:36;15.52;;;9.52;;
34505;SDS011;20748;42.632;23.198;2023-06-26T03:48:09;14.65;;;8.93;;
34505;SDS011;20748;42.632;23.198;2023-06-26T03:50:41;16.63;;;9.77;;
34505;SDS011;20748;42.632;23.198;2023-06-26T03:53:14;14.30;;;9.68;;
34505;SDS011;20748;42.632;23.198;2023-06-26T03:55:46;15.52;;;9.63;;
34505;SDS011;20748;42.632;23.198;2023-06-26T03:58:18;15.57;;;9.65;;
34505;SDS011;20748;42.632;23.198;2023-06-26T04:00:51;13.65;;;9.57;;
34505;SDS011;20748;42.632;23.198;2023-06-26T04:03:24;14.50;;;8.60;;
34505;SDS011;20748;42.632;23.198;2023-06-26T04:05:57;16.88;;;9.77;;
34505;SDS011;20748;42.632;23.198;2023-06-26T04:08:30;13.48;;;8.93;;
34505;SDS011;20748;42.632;23.198;2023-06-26T04:11:02;15.77;;;9.32;;
34505;SDS011;20748;42.632;23.198;2023-06-26T04:13:34;24.95;;;9.80;;
34505;SDS011;20748;42.632;23.198;2023-06-26T04:16:07;17.65;;;10.82;;
34505;SDS011;20748;42.632;23.198;2023-06-26T04:18:40;15.85;;;8.70;;
34505;SDS011;20748;42.632;23.198;2023-06-26T04:21:12;15.73;;;9.35;;
34505;SDS011;20748;42.632;23.198;2023-06-26T04:23:45;14.88;;;9.02;;
34505;SDS011;20748;42.632;23.198;2023-06-26T04:26:18;15.20;;;9.18;;
34505;SDS011;20748;42.632;23.198;2023-06-26T04:28:51;12.38;;;8.38;;
34505;SDS011;20748;42.632;23.198;2023-06-26T04:31:24;13.88;;;8.52;;
34505;SDS011;20748;42.632;23.198;2023-06-26T04:33:57;14.98;;;9.30;;
34505;SDS011;20748;42.632;23.198;2023-06-26T04:36:31;15.48;;;8.40;;
34505;SDS011;20748;42.632;23.198;2023-06-26T04:39:04;13.80;;;8.63;;
34505;SDS011;20748;42.632;23.198;2023-06-26T04:41:37;13.55;;;8.35;;
34505;SDS011;20748;42.632;23.198;2023-06-26T04:44:10;13.18;;;8.50;;
34505;SDS011;20748;42.632;23.198;2023-06-26T04:46:43;13.00;;;8.32;;
34505;SDS011;20748;42.632;23.198;2023-06-26T04:49:16;15.43;;;8.98;;
34505;SDS011;20748;42.632;23.198;2023-06-26T04:51:49;14.60;;;9.18;;
34505;SDS011;20748;42.632;23.198;2023-06-26T04:54:22;15.52;;;9.00;;
34505;SDS011;20748;42.632;23.198;2023-06-26T04:56:54;15.75;;;8.93;;
34505;SDS011;20748;42.632;23.198;2023-06-26T04:59:27;12.15;;;7.95;;
34505;SDS011;20748;42.632;23.198;2023-06-26T05:02:00;14.13;;;9.50;;
34505;SDS011;20748;42.632;23.198;2023-06-26T05:04:32;13.90;;;9.00;;
34505;SDS011;20748;42.632;23.198;2023-06-26T05:07:04;15.07;;;9.30;;
34505;SDS011;20748;42.632;23.198;2023-06-26T05:09:37;16.70;;;9.20;;
34505;SDS011;20748;42.632;23.198;2023-06-26T05:12:09;12.93;;;8.88;;
34505;SDS011;20748;42.632;23.198;2023-06-26T05:14:43;13.48;;;8.52;;
34505;SDS011;20748;42.632;23.198;2023-06-26T05:17:17;13.93;;;8.68;;
34505;SDS011;20748;42.632;23.198;2023-06-26T05:19:50;12.75;;;7.97;;
34505;SDS011;20748;42.632;23.198;2023-06-26T05:22:22;12.40;;;8.05;;
34505;SDS011;20748;42.632;23.198;2023-06-26T05:24:55;14.65;;;9.50;;
34505;SDS011;20748;42.632;23.198;2023-06-26T05:27:32;11.05;;;7.15;;
34505;SDS011;20748;42.632;23.198;2023-06-26T05:30:05;16.42;;;11.75;;
34505;SDS011;20748;42.632;23.198;2023-06-26T05:32:39;13.02;;;8.63;;
34505;SDS011;20748;42.632;23.198;2023-06-26T05:35:12;15.20;;;8.77;;
34505;SDS011;20748;42.632;23.198;2023-06-26T05:37:45;13.10;;;8.05;;
34505;SDS011;20748;42.632;23.198;2023-06-26T05:40:20;11.77;;;7.63;;
34505;SDS011;20748;42.632;23.198;2023-06-26T05:42:53;14.27;;;8.02;;
34505;SDS011;20748;42.632;23.198;2023-06-26T05:45:25;12.73;;;8.57;;
34505;SDS011;20748;42.632;23.198;2023-06-26T05:47:58;12.27;;;8.07;;
34505;SDS011;20748;42.632;23.198;2023-06-26T05:50:31;15.30;;;8.77;;
34505;SDS011;20748;42.632;23.198;2023-06-26T05:53:04;12.75;;;7.85;;
34505;SDS011;20748;42.632;23.198;2023-06-26T05:55:37;11.13;;;7.38;;
34505;SDS011;20748;42.632;23.198;2023-06-26T05:58:12;13.57;;;8.90;;
34505;SDS011;20748;42.632;23.198;2023-06-26T06:00:46;13.77;;;8.15;;
34505;SDS011;20748;42.632;23.198;2023-06-26T06:03:19;10.90;;;7.10;;
34505;SDS011;20748;42.632;23.198;2023-06-26T06:05:51;12.57;;;8.05;;
34505;SDS011;20748;42.632;23.198;2023-06-26T06:08:24;13.15;;;8.15;;
34505;SDS011;20748;42.632;23.198;2023-06-26T06:10:56;11.30;;;8.02;;
34505;SDS011;20748;42.632;23.198;2023-06-26T06:13:28;11.80;;;7.82;;
34505;SDS011;20748;42.632;23.198;2023-06-26T06:16:01;13.57;;;8.15;;
34505;SDS011;20748;42.632;23.198;2023-06-26T06:18:34;11.27;;;7.55;;
34505;SDS011;20748;42.632;23.198;2023-06-26T06:21:08;11.55;;;7.72;;
34505;SDS011;20748;42.632;23.198;2023-06-26T06:23:41;11.82;;;7.45;;
34505;SDS011;20748;42.632;23.198;2023-06-26T06:26:13;10.95;;;7.20;;
34505;SDS011;20748;42.632;23.198;2023-06-26T06:28:46;10.55;;;6.22;;
34505;SDS011;20748;42.632;23.198;2023-06-26T06:31:18;9.77;;;7.35;;
34505;SDS011;20748;42.632;23.198;2023-06-26T06:34:01;11.98;;;6.65;;
34505;SDS011;20748;42.632;23.198;2023-06-26T06:36:34;13.65;;;6.97;;
34505;SDS011;20748;42.632;23.198;2023-06-26T06:39:06;10.13;;;6.70;;
34505;SDS011;20748;42.632;23.198;2023-06-26T06:41:38;9.82;;;6.65;;
34505;SDS011;20748;42.632;23.198;2023-06-26T06:44:11;8.85;;;6.20;;
34505;SDS011;20748;42.632;23.198;2023-06-26T06:46:43;11.43;;;7.45;;
34505;SDS011;20748;42.632;23.198;2023-06-26T06:49:16;11.32;;;7.10;;
34505;SDS011;20748;42.632;23.198;2023-06-26T06:51:48;10.85;;;6.85;;
34505;SDS011;20748;42.632;23.198;2023-06-26T06:54:21;11.73;;;6.95;;
34505;SDS011;20748;42.632;23.198;2023-06-26T06:56:53;10.60;;;7.07;;
34505;SDS011;20748;42.632;23.198;2023-06-26T06:59:25;10.13;;;7.35;;
34505;SDS011;20748;42.632;23.198;2023-06-26T07:01:58;9.98;;;6.82;;
34505;SDS011;20748;42.632;23.198;2023-06-26T07:04:31;11.68;;;7.72;;
34505;SDS011;20748;42.632;23.198;2023-06-26T07:07:03;11.52;;;7.28;;
34505;SDS011;20748;42.632;23.198;2023-06-26T07:09:36;12.73;;;6.93;;
34505;SDS011;20748;42.632;23.198;2023-06-26T07:12:08;9.18;;;5.68;;
34505;SDS011;20748;42.632;23.198;2023-06-26T07:14:41;11.05;;;6.35;;
34505;SDS011;20748;42.632;23.198;2023-06-26T07:17:13;10.50;;;6.30;;
34505;SDS011;20748;42.632;23.198;2023-06-26T07:19:46;10.70;;;6.90;;
34505;SDS011;20748;42.632;23.198;2023-06-26T07:22:19;11.10;;;6.43;;
34505;SDS011;20748;42.632;23.198;2023-06-26T07:24:52;10.05;;;6.55;;
34505;SDS011;20748;42.632;23.198;2023-06-26T07:27:24;8.18;;;5.57;;
34505;SDS011;20748;42.632;23.198;2023-06-26T07:29:57;10.75;;;6.18;;
34505;SDS011;20748;42.632;23.198;2023-06-26T07:32:29;9.38;;;5.38;;
34505;SDS011;20748;42.632;23.198;2023-06-26T07:35:03;9.85;;;6.28;;
34505;SDS011;20748;42.632;23.198;2023-06-26T07:37:36;9.60;;;5.68;;
34505;SDS011;20748;42.632;23.198;2023-06-26T07:40:09;10.18;;;6.10;;
34505;SDS011;20748;42.632;23.198;2023-06-26T07:42:42;8.65;;;5.53;;
34505;SDS011;20748;42.632;23.198;2023-06-26T07:45:14;9.80;;;5.63;;
34505;SDS011;20748;42.632;23.198;2023-06-26T07:47:47;7.90;;;4.47;;
34505;SDS011;20748;42.632;23.198;2023-06-26T07:50:20;8.13;;;4.72;;
34505;SDS011;20748;42.632;23.198;2023-06-26T07:52:54;9.68;;;5.40;;
34505;SDS011;20748;42.632;23.198;2023-06-26T07:55:27;8.40;;;5.25;;
34505;SDS011;20748;42.632;23.198;2023-06-26T07:57:59;7.78;;;4.80;;
34505;SDS011;20748;42.632;23.198;2023-06-26T08:00:32;8.02;;;5.20;;
34505;SDS011;20748;42.632;23.198;2023-06-26T08:03:05;8.25;;;4.68;;
34505;SDS011;20748;42.632;23.198;2023-06-26T08:05:42;6.85;;;4.63;;
34505;SDS011;20748;42.632;23.198;2023-06-26T08:08:15;7.93;;;5.32;;
34505;SDS011;20748;42.632;23.198;2023-06-26T08:10:47;6.85;;;4.60;;
34505;SDS011;20748;42.632;23.198;2023-06-26T08:13:19;7.53;;;4.78;;
34505;SDS011;20748;42.632;23.198;2023-06-26T08:15:52;7.20;;;5.10;;
34505;SDS011;20748;42.632;23.198;2023-06-26T08:18:24;6.75;;;4.57;;
34505;SDS011;20748;42.632;23.198;2023-06-26T08:20:57;8.40;;;4.50;;
34505;SDS011;20748;42.632;23.198;2023-06-26T08:23:29;7.20;;;4.07;;
34505;SDS011;20748;42.632;23.198;2023-06-26T08:26:02;7.20;;;4.53;;
34505;SDS011;20748;42.632;23.198;2023-06-26T08:28:35;6.13;;;3.30;;
34505;SDS011;20748;42.632;23.198;2023-06-26T08:31:07;6.00;;;3.75;;
34505;SDS011;20748;42.632;23.198;2023-06-26T08:33:40;7.43;;;4.20;;
34505;SDS011;20748;42.632;23.198;2023-06-26T08:36:13;5.72;;;3.42;;
34505;SDS011;20748;42.632;23.198;2023-06-26T08:38:46;5.45;;;3.97;;
34505;SDS011;20748;42.632;23.198;2023-06-26T08:41:18;6.45;;;3.90;;
34505;SDS011;20748;42.632;23.198;2023-06-26T08:43:51;5.60;;;3.05;;
34505;SDS011;20748;42.632;23.198;2023-06-26T08:46:24;6.82;;;3.92;;
34505;SDS011;20748;42.632;23.198;2023-06-26T08:48:57;5.05;;;3.28;;
34505;SDS011;20748;42.632;23.198;2023-06-26T08:51:34;4.88;;;3.45;;
34505;SDS011;20748;42.632;23.198;2023-06-26T08:54:09;4.35;;;2.97;;
34505;SDS011;20748;42.632;23.198;2023-06-26T08:56:47;4.15;;;2.78;;
34505;SDS011;20748;42.632;23.198;2023-06-26T08:59:21;4.82;;;3.03;;
34505;SDS011;20748;42.632;23.198;2023-06-26T09:01:54;5.88;;;3.38;;
34505;SDS011;20748;42.632;23.198;2023-06-26T09:04:27;6.18;;;3.33;;
34505;SDS011;20748;42.632;23.198;2023-06-26T09:07:02;5.15;;;3.25;;
34505;SDS011;20748;42.632;23.198;2023-06-26T09:09:35;6.07;;;3.15;;
34505;SDS011;20748;42.632;23.198;2023-06-26T09:12:07;6.63;;;3.50;;
34505;SDS011;20748;42.632;23.198;2023-06-26T09:14:40;5.03;;;3.15;;
34505;SDS011;20748;42.632;23.198;2023-06-26T09:17:13;6.53;;;3.50;;
34505;SDS011;20748;42.632;23.198;2023-06-26T09:19:46;5.32;;;3.22;;
34505;SDS011;20748;42.632;23.198;2023-06-26T09:22:21;5.22;;;2.97;;
34505;SDS011;20748;42.632;23.198;2023-06-26T09:24:54;4.60;;;2.90;;
34505;SDS011;20748;42.632;23.198;2023-06-26T09:27:27;5.40;;;2.80;;
34505;SDS011;20748;42.632;23.198;2023-06-26T09:29:59;4.07;;;2.97;;
34505;SDS011;20748;42.632;23.198;2023-06-26T09:32:34;4.80;;;3.13;;
34505;SDS011;20748;42.632;23.198;2023-06-26T09:35:07;4.95;;;3.05;;
34505;SDS011;20748;42.632;23.198;2023-06-26T09:37:40;4.88;;;2.90;;
34505;SDS011;20748;42.632;23.198;2023-06-26T09:40:13;5.68;;;3.40;;
34505;SDS011;20748;42.632;23.198;2023-06-26T09:42:46;5.90;;;3.70;;
34505;SDS011;20748;42.632;23.198;2023-06-26T09:45:19;5.40;;;3.45;;
34505;SDS011;20748;42.632;23.198;2023-06-26T09:47:52;6.40;;;3.88;;
34505;SDS011;20748;42.632;23.198;2023-06-26T09:50:24;5.68;;;3.35;;
34505;SDS011;20748;42.632;23.198;2023-06-26T09:52:59;9.88;;;3.80;;
34505;SDS011;20748;42.632;23.198;2023-06-26T09:55:40;5.95;;;3.70;;
34505;SDS011;20748;42.632;23.198;2023-06-26T09:58:15;6.30;;;3.33;;
34505;SDS011;20748;42.632;23.198;2023-06-26T10:00:49;5.47;;;3.20;;
34505;SDS011;20748;42.632;23.198;2023-06-26T10:03:23;4.57;;;2.95;;
34505;SDS011;20748;42.632;23.198;2023-06-26T10:05:56;5.15;;;3.08;;
34505;SDS011;20748;42.632;23.198;2023-06-26T10:08:30;5.40;;;2.88;;
34505;SDS011;20748;42.632;23.198;2023-06-26T10:11:06;5.45;;;3.10;;
34505;SDS011;20748;42.632;23.198;2023-06-26T10:13:44;4.32;;;3.08;;
34505;SDS011;20748;42.632;23.198;2023-06-26T10:16:21;5.35;;;3.65;;
34505;SDS011;20748;42.632;23.198;2023-06-26T10:18:56;7.20;;;3.55;;
34505;SDS011;20748;42.632;23.198;2023-06-26T10:21:33;7.80;;;3.85;;
34505;SDS011;20748;42.632;23.198;2023-06-26T10:24:07;5.65;;;3.97;;
34505;SDS011;20748;42.632;23.198;2023-06-26T10:26:42;4.95;;;3.15;;
34505;SDS011;20748;42.632;23.198;2023-06-26T10:29:17;5.50;;;3.35;;
34505;SDS011;20748;42.632;23.198;2023-06-26T10:31:52;5.60;;;3.38;;
34505;SDS011;20748;42.632;23.198;2023-06-26T10:34:28;5.95;;;2.90;;
34505;SDS011;20748;42.632;23.198;2023-06-26T10:37:01;6.25;;;3.55;;
34505;SDS011;20748;42.632;23.198;2023-06-26T10:39:49;4.55;;;3.00;;
34505;SDS011;20748;42.632;23.198;2023-06-26T10:42:28;5.13;;;3.10;;
34505;SDS011;20748;42.632;23.198;2023-06-26T10:45:09;4.72;;;3.00;;
34505;SDS011;20748;42.632;23.198;2023-06-26T10:47:45;5.78;;;3.80;;
34505;SDS011;20748;42.632;23.198;2023-06-26T10:50:19;8.85;;;3.17;;
34505;SDS011;20748;42.632;23.198;2023-06-26T10:53:08;4.97;;;2.85;;
34505;SDS011;20748;42.632;23.198;2023-06-26T10:55:43;7.43;;;3.53;;
34505;SDS011;20748;42.632;23.198;2023-06-26T10:58:29;6.43;;;4.03;;
34505;SDS011;20748;42.632;23.198;2023-06-26T11:01:17;6.40;;;4.97;;
34505;SDS011;20748;42.632;23.198;2023-06-26T11:04:04;7.57;;;4.05;;
34505;SDS011;20748;42.632;23.198;2023-06-26T11:06:37;4.90;;;3.13;;
34505;SDS011;20748;42.632;23.198;2023-06-26T11:09:14;4.78;;;3.40;;
34505;SDS011;20748;42.632;23.198;2023-06-26T11:11:59;6.07;;;3.40;;
34505;SDS011;20748;42.632;23.198;2023-06-26T11:14:36;5.30;;;3.15;;
34505;SDS011;20748;42.632;23.198;2023-06-26T11:17:08;5.07;;;3.33;;
34505;SDS011;20748;42.632;23.198;2023-06-26T11:19:42;5.57;;;3.22;;
34505;SDS011;20748;42.632;23.198;2023-06-26T11:22:15;8.98;;;3.83;;
34505;SDS011;20748;42.632;23.198;2023-06-26T11:24:48;6.07;;;4.07;;
34505;SDS011;20748;42.632;23.198;2023-06-26T11:27:26;6.03;;;3.50;;
34505;SDS011;20748;42.632;23.198;2023-06-26T11:30:03;5.93;;;3.60;;
34505;SDS011;20748;42.632;23.198;2023-06-26T11:32:36;5.90;;;4.15;;
34505;SDS011;20748;42.632;23.198;2023-06-26T11:35:09;6.88;;;4.18;;
34505;SDS011;20748;42.632;23.198;2023-06-26T11:37:41;6.30;;;3.72;;
34505;SDS011;20748;42.632;23.198;2023-06-26T11:40:17;6.35;;;4.00;;
34505;SDS011;20748;42.632;23.198;2023-06-26T11:42:50;5.18;;;3.83;;
34505;SDS011;20748;42.632;23.198;2023-06-26T11:45:24;5.22;;;3.60;;
34505;SDS011;20748;42.632;23.198;2023-06-26T11:47:56;5.82;;;3.63;;
34505;SDS011;20748;42.632;23.198;2023-06-26T11:50:29;7.00;;;4.00;;
34505;SDS011;20748;42.632;23.198;2023-06-26T11:53:01;5.45;;;3.22;;
34505;SDS011;20748;42.632;23.198;2023-06-26T11:55:40;5.90;;;3.55;;
34505;SDS011;20748;42.632;23.198;2023-06-26T11:58:15;7.03;;;3.50;;
34505;SDS011;20748;42.632;23.198;2023-06-26T12:00:47;6.13;;;3.60;;
34505;SDS011;20748;42.632;23.198;2023-06-26T12:03:20;6.53;;;3.72;;
34505;SDS011;20748;42.632;23.198;2023-06-26T12:05:53;5.70;;;3.75;;
34505;SDS011;20748;42.632;23.198;2023-06-26T12:08:25;7.38;;;3.90;;
34505;SDS011;20748;42.632;23.198;2023-06-26T12:10:58;5.45;;;3.25;;
34505;SDS011;20748;42.632;23.198;2023-06-26T12:13:32;5.95;;;3.42;;
34505;SDS011;20748;42.632;23.198;2023-06-26T12:16:05;5.35;;;3.33;;
34505;SDS011;20748;42.632;23.198;2023-06-26T12:18:37;6.57;;;3.25;;
34505;SDS011;20748;42.632;23.198;2023-06-26T12:24:16;4.15;;;3.00;;
34505;SDS011;20748;42.632;23.198;2023-06-26T12:26:50;6.25;;;4.00;;
34505;SDS011;20748;42.632;23.198;2023-06-26T12:29:29;6.15;;;3.85;;
34505;SDS011;20748;42.632;23.198;2023-06-26T12:32:07;6.28;;;3.47;;
34505;SDS011;20748;42.632;23.198;2023-06-26T12:34:40;5.18;;;3.67;;
34505;SDS011;20748;42.632;23.198;2023-06-26T12:37:13;6.18;;;3.72;;
34505;SDS011;20748;42.632;23.198;2023-06-26T12:39:46;9.00;;;3.22;;
34505;SDS011;20748;42.632;23.198;2023-06-26T12:42:19;5.18;;;3.10;;
34505;SDS011;20748;42.632;23.198;2023-06-26T12:44:54;5.32;;;3.28;;
34505;SDS011;20748;42.632;23.198;2023-06-26T12:47:28;4.95;;;3.22;;
34505;SDS011;20748;42.632;23.198;2023-06-26T12:50:04;6.93;;;3.05;;
34505;SDS011;20748;42.632;23.198;2023-06-26T12:52:38;8.75;;;3.42;;
34505;SDS011;20748;42.632;23.198;2023-06-26T12:55:10;5.90;;;3.63;;
34505;SDS011;20748;42.632;23.198;2023-06-26T12:57:42;5.78;;;3.28;;
34505;SDS011;20748;42.632;23.198;2023-06-26T13:00:16;6.30;;;2.67;;
34505;SDS011;20748;42.632;23.198;2023-06-26T13:02:49;4.70;;;2.72;;
34505;SDS011;20748;42.632;23.198;2023-06-26T13:05:21;5.20;;;3.28;;
34505;SDS011;20748;42.632;23.198;2023-06-26T13:07:54;5.07;;;3.22;;
34505;SDS011;20748;42.632;23.198;2023-06-26T13:10:26;6.35;;;3.70;;
34505;SDS011;20748;42.632;23.198;2023-06-26T13:13:00;5.43;;;2.85;;
34505;SDS011;20748;42.632;23.198;2023-06-26T13:15:33;5.20;;;3.38;;
34505;SDS011;20748;42.632;23.198;2023-06-26T13:18:06;5.20;;;3.22;;
34505;SDS011;20748;42.632;23.198;2023-06-26T13:20:38;4.90;;;3.05;;
34505;SDS011;20748;42.632;23.198;2023-06-26T13:23:11;5.43;;;2.88;;
34505;SDS011;20748;42.632;23.198;2023-06-26T13:25:43;4.53;;;3.00;;
34505;SDS011;20748;42.632;23.198;2023-06-26T13:28:16;5.93;;;3.25;;
34505;SDS011;20748;42.632;23.198;2023-06-26T13:30:49;4.22;;;2.67;;
34505;SDS011;20748;42.632;23.198;2023-06-26T13:33:21;4.63;;;2.72;;
34505;SDS011;20748;42.632;23.198;2023-06-26T13:35:56;5.70;;;3.03;;
34505;SDS011;20748;42.632;23.198;2023-06-26T13:38:29;8.63;;;3.25;;
34505;SDS011;20748;42.632;23.198;2023-06-26T13:41:01;4.93;;;3.10;;
34505;SDS011;20748;42.632;23.198;2023-06-26T13:43:34;5.25;;;3.10;;
34505;SDS011;20748;42.632;23.198;2023-06-26T13:46:08;5.28;;;3.22;;
34505;SDS011;20748;42.632;23.198;2023-06-26T13:48:40;4.55;;;2.80;;
34505;SDS011;20748;42.632;23.198;2023-06-26T13:51:12;5.47;;;2.95;;
34505;SDS011;20748;42.632;23.198;2023-06-26T13:53:45;5.68;;;3.05;;
34505;SDS011;20748;42.632;23.198;2023-06-26T13:56:17;5.40;;;3.17;;
34505;SDS011;20748;42.632;23.198;2023-06-26T13:58:50;4.57;;;2.85;;
34505;SDS011;20748;42.632;23.198;2023-06-26T14:01:23;4.63;;;3.08;;
34505;SDS011;20748;42.632;23.198;2023-06-26T14:03:55;5.68;;;3.40;;
34505;SDS011;20748;42.632;23.198;2023-06-26T14:06:28;4.50;;;3.20;;
34505;SDS011;20748;42.632;23.198;2023-06-26T14:09:01;5.97;;;3.15;;
34505;SDS011;20748;42.632;23.198;2023-06-26T14:11:35;5.95;;;3.40;;
34505;SDS011;20748;42.632;23.198;2023-06-26T14:14:07;6.03;;;3.50;;
34505;SDS011;20748;42.632;23.198;2023-06-26T14:16:41;5.50;;;3.35;;
34505;SDS011;20748;42.632;23.198;2023-06-26T14:19:13;5.22;;;3.17;;
34505;SDS011;20748;42.632;23.198;2023-06-26T14:21:46;5.82;;;3.72;;
34505;SDS011;20748;42.632;23.198;2023-06-26T14:24:19;6.63;;;3.15;;
34505;SDS011;20748;42.632;23.198;2023-06-26T14:26:51;5.03;;;2.97;;
34505;SDS011;20748;42.632;23.198;2023-06-26T14:29:24;6.30;;;3.60;;
34505;SDS011;20748;42.632;23.198;2023-06-26T14:31:57;6.30;;;3.35;;
34505;SDS011;20748;42.632;23.198;2023-06-26T14:34:29;5.70;;;3.42;;
34505;SDS011;20748;42.632;23.198;2023-06-26T14:37:02;7.18;;;3.35;;
34505;SDS011;20748;42.632;23.198;2023-06-26T14:39:34;5.25;;;3.28;;
34505;SDS011;20748;42.632;23.198;2023-06-26T14:42:07;7.97;;;4.15;;
34505;SDS011;20748;42.632;23.198;2023-06-26T14:44:40;5.47;;;3.28;;
34505;SDS011;20748;42.632;23.198;2023-06-26T14:47:14;7.05;;;3.22;;
34505;SDS011;20748;42.632;23.198;2023-06-26T14:49:46;5.18;;;3.03;;
34505;SDS011;20748;42.632;23.198;2023-06-26T14:52:18;4.88;;;3.30;;
34505;SDS011;20748;42.632;23.198;2023-06-26T14:54:51;4.72;;;3.08;;
34505;SDS011;20748;42.632;23.198;2023-06-26T14:57:23;5.50;;;3.22;;
34505;SDS011;20748;42.632;23.198;2023-06-26T14:59:56;6.25;;;3.45;;
34505;SDS011;20748;42.632;23.198;2023-06-26T15:02:29;5.30;;;3.03;;
34505;SDS011;20748;42.632;23.198;2023-06-26T15:05:01;5.55;;;3.40;;
34505;SDS011;20748;42.632;23.198;2023-06-26T15:07:34;5.63;;;3.70;;
34505;SDS011;20748;42.632;23.198;2023-06-26T15:10:07;4.78;;;2.80;;
34505;SDS011;20748;42.632;23.198;2023-06-26T15:12:39;4.82;;;2.88;;